createdAt,value
2018-07-06T04:11:07.383Z,79.13
2018-07-06T04:11:32.885Z,79.32
2018-07-06T04:11:58.376Z,78.84
2018-07-06T04:12:23.928Z,78.45
2018-07-06T04:12:49.362Z,78.75
2018-07-06T04:13:14.810Z,78.84
2018-07-06T04:13:40.286Z,79.03
2018-07-06T04:14:05.772Z,78.75
2018-07-06T04:14:31.255Z,78.84
2018-07-06T04:14:56.752Z,78.75
2018-07-06T04:15:22.258Z,79.03
2018-07-06T04:15:47.704Z,78.55
2018-07-06T04:16:13.240Z,78.75
2018-07-06T04:16:38.724Z,78.55
2018-07-06T04:17:04.200Z,78.94
2018-07-06T04:17:29.725Z,79.13
2018-07-06T04:17:55.270Z,78.55
2018-07-06T04:18:20.747Z,78.27
2018-07-06T04:18:46.201Z,78.65
2018-07-06T04:19:11.667Z,78.84
2018-07-06T04:19:37.165Z,78.55
2018-07-06T04:20:02.660Z,78.75
2018-07-06T04:20:28.104Z,78.45
2018-07-06T04:20:53.529Z,78.84
2018-07-06T04:21:19.046Z,78.94
2018-07-06T04:21:44.490Z,78.84
2018-07-06T04:22:09.969Z,78.75
2018-07-06T04:22:35.426Z,78.84
2018-07-06T04:23:00.963Z,78.75
2018-07-06T04:23:26.364Z,78.55
2018-07-06T04:23:51.847Z,78.75
2018-07-06T04:24:17.357Z,78.94
2018-07-06T04:24:42.816Z,79.13
2018-07-06T04:25:08.283Z,78.94
2018-07-06T04:25:33.790Z,79.03
2018-07-06T04:25:59.290Z,78.84
2018-07-06T04:26:24.774Z,78.75
2018-07-06T04:26:50.266Z,78.75
2018-07-06T04:27:15.734Z,78.75
2018-07-06T04:27:41.218Z,78.65
2018-07-06T04:28:06.747Z,78.84
2018-07-06T04:28:32.240Z,78.84
2018-07-06T04:28:57.716Z,78.84
2018-07-06T04:29:23.193Z,79.03
2018-07-06T04:29:48.691Z,78.84
2018-07-06T04:30:14.213Z,78.75
2018-07-06T04:30:39.692Z,78.27
2018-07-06T04:31:05.157Z,78.55
2018-07-06T04:31:30.677Z,78.36
2018-07-06T04:31:56.133Z,78.36
2018-07-06T04:32:21.598Z,78.65
2018-07-06T04:32:47.103Z,78.08
2018-07-06T04:33:12.577Z,78.65
2018-07-06T04:33:38.021Z,78.75
2018-07-06T04:34:03.496Z,78.08
2018-07-06T04:34:28.964Z,77.98
2018-07-06T04:34:54.383Z,78.17
2018-07-06T04:35:19.883Z,78.17
2018-07-06T04:35:45.364Z,78.27
2018-07-06T04:36:10.868Z,78.17
2018-07-06T04:36:36.374Z,78.17
2018-07-06T04:37:01.886Z,78.17
2018-07-06T04:37:27.388Z,77.98
2018-07-06T04:37:52.880Z,78.17
2018-07-06T04:38:18.337Z,78.17
2018-07-06T04:38:43.812Z,78.36
2018-07-06T04:39:09.314Z,78.17
2018-07-06T04:39:34.813Z,77.88
2018-07-06T04:40:48.653Z,78.27
2018-07-06T04:41:14.142Z,78.27
2018-07-06T04:41:39.614Z,78.17
2018-07-06T04:42:05.144Z,78.17
2018-07-06T04:42:30.611Z,78.45
2018-07-06T04:42:56.120Z,78.45
2018-07-06T04:43:21.636Z,78.08
2018-07-06T04:43:47.128Z,78.08
2018-07-06T04:44:12.613Z,77.88
2018-07-06T04:44:38.038Z,78.84
2018-07-06T04:45:03.593Z,78.75
2018-07-06T04:45:29.041Z,78.65
2018-07-06T04:45:54.465Z,78.75
2018-07-06T04:46:19.966Z,78.55
2018-07-06T04:46:45.438Z,78.27
2018-07-06T04:47:10.926Z,78.84
2018-07-06T04:47:36.485Z,78.75
2018-07-06T04:48:01.950Z,78.75
2018-07-06T04:48:27.493Z,79.03
2018-07-06T04:48:52.956Z,78.75
2018-07-06T04:49:18.717Z,79.13
2018-07-06T04:49:44.189Z,78.84
2018-07-06T04:50:09.651Z,79.13
2018-07-06T04:50:35.130Z,79.22
2018-07-06T04:51:00.638Z,79.03
2018-07-06T04:51:26.075Z,79.03
2018-07-06T04:51:51.582Z,79.03
2018-07-06T04:52:17.065Z,79.13
2018-07-06T04:52:42.593Z,78.75
2018-07-06T04:53:08.187Z,79.13
2018-07-06T04:53:33.686Z,78.75
2018-07-06T04:53:59.090Z,79.42
2018-07-06T04:54:24.564Z,79.32
2018-07-06T04:54:50.042Z,79.42
2018-07-06T04:55:15.527Z,79.22
2018-07-06T04:55:41.020Z,79.42
2018-07-06T04:56:06.494Z,79.52
2018-07-06T04:56:31.930Z,79.42
2018-07-06T04:56:57.424Z,79.42
2018-07-06T04:57:22.873Z,79.32
2018-07-06T04:57:48.365Z,79.42
2018-07-06T04:58:13.881Z,79.42
2018-07-06T04:58:39.315Z,79.22
2018-07-06T04:59:04.813Z,79.61
2018-07-06T04:59:30.291Z,79.32
2018-07-06T04:59:55.809Z,78.94
2018-07-06T05:00:21.255Z,79.22
2018-07-06T05:00:46.746Z,79.42
2018-07-06T05:01:12.134Z,79.42
2018-07-06T05:01:37.630Z,79.42
2018-07-06T05:02:03.123Z,79.13
2018-07-06T05:02:28.537Z,79.8
2018-07-06T05:02:54.115Z,79.9
2018-07-06T05:03:19.577Z,79.71
2018-07-06T05:03:45.075Z,79.71
2018-07-06T05:04:10.531Z,79.71
2018-07-06T05:04:36.015Z,79.71
2018-07-06T05:05:01.471Z,79.8
2018-07-06T05:05:26.926Z,79.52
2018-07-06T05:05:52.469Z,79.71
2018-07-06T05:06:17.926Z,79.8
2018-07-06T05:06:43.407Z,79.13
2018-07-06T05:07:08.873Z,79.32
2018-07-06T05:07:34.407Z,79.22
2018-07-06T05:07:59.866Z,79.13
2018-07-06T05:08:25.297Z,79.52
2018-07-06T05:08:50.769Z,79.13
2018-07-06T05:09:16.302Z,79.32
2018-07-06T05:09:41.749Z,79.32
2018-07-06T05:10:07.229Z,79.32
2018-07-06T05:10:32.696Z,79.22
2018-07-06T05:10:58.153Z,79.52
2018-07-06T05:11:23.623Z,79.42
2018-07-06T05:11:49.076Z,79.61
2018-07-06T05:12:14.565Z,79.22
2018-07-06T05:12:40.047Z,79.42
2018-07-06T05:13:05.510Z,79.13
2018-07-06T05:13:31.010Z,79.22
2018-07-06T05:13:56.513Z,79.52
2018-07-06T05:14:22.005Z,79.8
2018-07-06T05:14:47.515Z,79.8
2018-07-06T05:15:12.954Z,79.61
2018-07-06T05:15:38.420Z,79.61
2018-07-06T05:16:03.893Z,79.61
2018-07-06T05:16:29.356Z,79.61
2018-07-06T05:16:54.904Z,79.99
2018-07-06T05:17:20.339Z,79.8
2018-07-06T05:17:45.828Z,79.8
2018-07-06T05:18:11.259Z,79.99
2018-07-06T05:18:36.740Z,79.8
2018-07-06T05:19:02.235Z,79.99
2018-07-06T05:19:27.651Z,79.99
2018-07-06T05:19:53.229Z,79.99
2018-07-06T05:20:18.709Z,79.9
2018-07-06T05:20:44.147Z,79.71
2018-07-06T05:21:09.598Z,79.9
2018-07-06T05:21:35.101Z,79.61
2018-07-06T05:22:00.569Z,80.28
2018-07-06T05:22:26.094Z,80.38
2018-07-06T05:22:51.532Z,80.28
2018-07-06T05:23:17.048Z,79.9
2018-07-06T05:23:42.484Z,80.19
2018-07-06T05:24:07.952Z,80.28
2018-07-06T05:24:33.436Z,80.28
2018-07-06T05:24:58.900Z,80.28
2018-07-06T05:25:24.399Z,80.09
2018-07-06T05:25:49.886Z,80.19
2018-07-06T05:26:15.382Z,80.28
2018-07-06T05:26:40.800Z,80.28
2018-07-06T05:27:06.309Z,80.28
2018-07-06T05:27:31.761Z,80.09
2018-07-06T05:27:57.271Z,80.09
2018-07-06T05:28:22.726Z,80.47
2018-07-06T05:28:48.252Z,80.28
2018-07-06T05:29:13.683Z,80.47
2018-07-06T05:29:39.108Z,80.86
2018-07-06T05:30:04.586Z,80.57
2018-07-06T05:30:30.080Z,80.38
2018-07-06T05:30:55.566Z,80.57
2018-07-06T05:31:21.036Z,79.9
2018-07-06T05:31:46.539Z,80.47
2018-07-06T05:32:11.986Z,80.19
2018-07-06T05:32:37.448Z,80.66
2018-07-06T05:33:02.897Z,80.57
2018-07-06T05:33:28.369Z,81.24
2018-07-06T05:33:53.843Z,80.66
2018-07-06T05:34:19.438Z,81.15
2018-07-06T05:34:44.798Z,81.24
2018-07-06T05:35:10.268Z,81.24
2018-07-06T05:35:35.754Z,81.34
2018-07-06T05:36:01.206Z,81.43
2018-07-06T05:36:26.711Z,81.15
2018-07-06T05:36:52.147Z,81.34
2018-07-06T05:37:17.642Z,81.34
2018-07-06T05:37:43.146Z,81.34
2018-07-06T05:38:08.609Z,81.34
2018-07-06T05:38:34.117Z,81.15
2018-07-06T05:38:59.661Z,81.34
2018-07-06T05:39:25.126Z,81.34
2018-07-06T05:39:50.608Z,81.43
2018-07-06T05:40:16.048Z,81.34
2018-07-06T05:40:41.529Z,81.24
2018-07-06T05:41:06.975Z,81.43
2018-07-06T05:41:32.489Z,81.24
2018-07-06T05:41:57.887Z,81.15
2018-07-06T05:42:23.395Z,81.34
2018-07-06T05:42:48.851Z,81.34
2018-07-06T05:43:14.330Z,81.43
2018-07-06T05:43:39.885Z,81.38
2018-07-06T05:44:05.371Z,81.34
2018-07-06T05:44:30.870Z,81.38
2018-07-06T05:44:56.333Z,81.34
2018-07-06T05:45:21.787Z,81.28
2018-07-06T05:45:47.244Z,81.15
2018-07-06T05:46:12.716Z,81.34
2018-07-06T05:46:38.231Z,81.24
2018-07-06T05:47:03.738Z,81.24
2018-07-06T05:47:29.274Z,81.15
2018-07-06T05:47:54.771Z,81.43
2018-07-06T05:48:20.242Z,81.34
2018-07-06T05:48:45.749Z,80.96
2018-07-06T05:49:11.250Z,81.24
2018-07-06T05:49:36.766Z,81.05
2018-07-06T05:50:02.241Z,80.96
2018-07-06T05:50:27.734Z,81.24
2018-07-06T05:50:53.232Z,81.34
2018-07-06T05:51:18.696Z,81.43
2018-07-06T05:51:44.194Z,81.34
2018-07-06T05:52:09.687Z,81.34
2018-07-06T05:52:35.177Z,81.34
2018-07-06T05:53:00.669Z,81.38
2018-07-06T05:53:26.167Z,81.34
2018-07-06T05:53:51.723Z,81.43
2018-07-06T05:54:17.151Z,81.15
2018-07-06T05:55:15.698Z,80.86
2018-07-06T05:55:41.196Z,81.15
2018-07-06T05:56:06.719Z,81.15
2018-07-06T05:56:32.235Z,81.15
2018-07-06T05:56:57.750Z,81.05
2018-07-06T05:57:23.227Z,81.34
2018-07-06T05:57:48.698Z,81.09
2018-07-06T05:58:14.203Z,81.24
2018-07-06T05:58:40.069Z,80.96
2018-07-06T05:59:05.808Z,81.24
2018-07-06T05:59:31.365Z,81.53
2018-07-06T05:59:56.832Z,81.24
2018-07-06T06:00:22.318Z,81.53
2018-07-06T06:00:47.807Z,81.34
2018-07-06T06:01:13.305Z,81.34
2018-07-06T06:01:38.825Z,81.53
2018-07-06T06:02:04.311Z,81.34
2018-07-06T06:02:29.841Z,81.24
2018-07-06T06:02:55.326Z,81.15
2018-07-06T06:03:20.825Z,81.15
2018-07-06T06:03:46.295Z,81.15
2018-07-06T06:04:49.915Z,80.96
2018-07-06T06:05:15.413Z,81.24
2018-07-06T06:05:40.924Z,81.28
2018-07-06T06:06:06.393Z,80.99
2018-07-06T06:06:31.883Z,81.19
2018-07-06T06:06:57.398Z,81.38
2018-07-06T06:07:22.878Z,81.38
2018-07-06T06:07:48.357Z,81.15
2018-07-06T06:08:13.852Z,81.34
2018-07-06T06:08:39.356Z,81.28
2018-07-06T06:09:04.882Z,81.19
2018-07-06T06:10:08.469Z,81.48
2018-07-06T06:10:33.952Z,81.48
2018-07-06T06:10:59.449Z,81.28
2018-07-06T06:11:24.946Z,81.48
2018-07-06T06:11:50.444Z,80.99
2018-07-06T06:12:15.969Z,81.09
2018-07-06T06:12:41.424Z,80.99
2018-07-06T06:13:06.965Z,81.09
2018-07-06T06:13:32.460Z,80.71
2018-07-06T06:13:57.990Z,80.51
2018-07-06T06:14:23.467Z,80.42
2018-07-06T06:14:48.971Z,80.42
2018-07-06T06:15:14.476Z,80.42
2018-07-06T06:15:40.041Z,80.8
2018-07-06T06:16:05.492Z,80.61
2018-07-06T06:16:30.952Z,80.71
2018-07-06T06:16:56.409Z,80.51
2018-07-06T06:17:21.932Z,80.32
2018-07-06T06:17:47.456Z,80.55
2018-07-06T06:18:12.942Z,80.8
2018-07-06T06:18:38.533Z,80.22
2018-07-06T06:19:03.921Z,80.36
2018-07-06T06:19:29.436Z,79.98
2018-07-06T06:19:54.922Z,80.36
2018-07-06T06:20:20.449Z,79.5
2018-07-06T06:20:45.961Z,79.88
2018-07-06T06:21:11.459Z,79.79
2018-07-06T06:21:36.961Z,79.3
2018-07-06T06:22:45.649Z,79.3
2018-07-06T06:23:11.134Z,79.27
2018-07-06T06:23:36.641Z,79.5
2018-07-06T06:24:02.154Z,79.4
2018-07-06T06:24:27.639Z,79.21
2018-07-06T06:24:53.525Z,79.11
2018-07-06T06:25:18.878Z,78.92
2018-07-06T06:25:44.358Z,79.11
2018-07-06T06:26:09.827Z,78.92
2018-07-06T06:26:35.357Z,78.73
2018-07-06T06:27:00.852Z,79.11
2018-07-06T06:27:26.547Z,79.02
2018-07-06T06:27:52.036Z,78.53
2018-07-06T06:28:17.497Z,78.34
2018-07-06T06:28:42.965Z,78.44
2018-07-06T06:29:08.466Z,78.44
2018-07-06T06:29:33.943Z,78.83
2018-07-06T06:29:59.388Z,77.96
2018-07-06T06:30:24.911Z,78.25
2018-07-06T06:30:50.346Z,78.25
2018-07-06T06:31:15.784Z,78.15
2018-07-06T06:31:41.252Z,77.76
2018-07-06T06:32:06.757Z,78.25
2018-07-06T06:32:32.245Z,78.06
2018-07-06T06:32:57.751Z,78.06
2018-07-06T06:33:23.253Z,77.96
2018-07-06T06:33:48.814Z,78.15
2018-07-06T06:34:14.130Z,78.15
2018-07-06T06:34:39.611Z,78.15
2018-07-06T06:35:05.136Z,78.06
2018-07-06T06:35:30.534Z,78.25
2018-07-06T06:35:56.005Z,77.76
2018-07-06T06:36:21.463Z,77.67
2018-07-06T06:36:46.960Z,77.58
2018-07-06T06:37:12.420Z,77.58
2018-07-06T06:37:37.935Z,77.76
2018-07-06T06:38:03.421Z,77.67
2018-07-06T06:38:28.909Z,77.58
2018-07-06T06:38:54.363Z,77.96
2018-07-06T06:39:19.821Z,77.96
2018-07-06T06:39:45.302Z,77.67
2018-07-06T06:40:10.804Z,77.81
2018-07-06T06:40:36.303Z,77.13
2018-07-06T06:41:01.738Z,77.51
2018-07-06T06:41:27.201Z,77.42
2018-07-06T06:41:52.657Z,77.42
2018-07-06T06:42:18.132Z,77.61
2018-07-06T06:42:43.614Z,77.42
2018-07-06T06:43:57.393Z,77.71
2018-07-06T06:44:22.870Z,77.33
2018-07-06T06:44:48.418Z,77.33
2018-07-06T06:45:13.836Z,77.61
2018-07-06T06:45:39.312Z,77.33
2018-07-06T06:46:04.833Z,77.51
2018-07-06T06:46:30.330Z,77.51
2018-07-06T06:46:55.844Z,77.71
2018-07-06T06:47:21.339Z,77.51
2018-07-06T06:47:46.779Z,77.42
2018-07-06T06:48:12.271Z,76.84
2018-07-06T06:48:37.761Z,76.46
2018-07-06T06:49:03.208Z,76.46
2018-07-06T06:49:28.651Z,76.84
2018-07-06T06:49:54.161Z,76.84
2018-07-06T06:50:19.634Z,77.04
2018-07-06T06:50:45.127Z,76.65
2018-07-06T06:51:10.577Z,76.65
2018-07-06T06:51:36.011Z,76.69
2018-07-06T06:52:01.472Z,76.31
2018-07-06T06:52:26.969Z,76.56
2018-07-06T06:52:52.424Z,75.92
2018-07-06T06:53:17.914Z,76.21
2018-07-06T06:53:43.370Z,76.01
2018-07-06T06:54:08.838Z,75.73
2018-07-06T06:54:34.320Z,76.4
2018-07-06T06:54:59.760Z,76.4
2018-07-06T06:55:25.249Z,76.31
2018-07-06T06:55:50.711Z,75.54
2018-07-06T06:56:16.204Z,75.54
2018-07-06T06:56:41.627Z,76.01
2018-07-06T06:57:07.063Z,75.82
2018-07-06T06:57:32.543Z,76.21
2018-07-06T06:57:58.017Z,75.82
2018-07-06T06:58:23.490Z,75.15
2018-07-06T06:58:48.991Z,75.63
2018-07-06T06:59:14.397Z,75.24
2018-07-06T06:59:39.852Z,75.34
2018-07-06T07:00:05.396Z,75.15
2018-07-06T07:00:30.811Z,75.34
2018-07-06T07:00:56.361Z,75.34
2018-07-06T07:01:21.796Z,75.24
2018-07-06T07:01:47.268Z,75.24
2018-07-06T07:02:12.728Z,75.15
2018-07-06T07:02:38.290Z,75.44
2018-07-06T07:03:03.759Z,75.24
2018-07-06T07:03:29.211Z,75.15
2018-07-06T07:03:54.712Z,75.24
2018-07-06T07:04:20.223Z,75.15
2018-07-06T07:04:45.702Z,75.44
2018-07-06T07:05:11.211Z,75.73
2018-07-06T07:05:36.709Z,75.44
2018-07-06T07:06:02.199Z,75.63
2018-07-06T07:06:27.660Z,75.63
2018-07-06T07:06:53.305Z,75.54
2018-07-06T07:07:18.712Z,75.44
2018-07-06T07:07:44.271Z,75.34
2018-07-06T07:08:09.829Z,75.24
2018-07-06T07:08:35.172Z,75.44
2018-07-06T07:09:00.715Z,75.44
2018-07-06T07:09:26.587Z,74.96
2018-07-06T07:09:52.277Z,75.05
2018-07-06T07:10:17.821Z,74.96
2018-07-06T07:10:43.345Z,74.76
2018-07-06T07:11:08.872Z,74.96
2018-07-06T07:11:34.534Z,74.96
2018-07-06T07:12:00.042Z,74.86
2018-07-06T07:12:25.549Z,75.15
2018-07-06T07:12:51.048Z,75.15
2018-07-06T07:13:16.578Z,75.24
2018-07-06T07:13:42.248Z,74.86
2018-07-06T07:14:08.031Z,74.76
2018-07-06T07:14:33.454Z,74.76
2018-07-06T07:14:58.895Z,74.29
2018-07-06T07:15:24.520Z,74.57
2018-07-06T07:15:49.848Z,74.57
2018-07-06T07:16:15.328Z,74.38
2018-07-06T07:16:41.219Z,74.67
2018-07-06T07:17:06.714Z,74.67
2018-07-06T07:17:32.220Z,74.57
2018-07-06T07:17:57.743Z,74.57
2018-07-06T07:18:23.224Z,74.48
2018-07-06T07:18:48.711Z,74.76
2018-07-06T07:19:14.213Z,74.48
2018-07-06T07:19:39.766Z,74.57
2018-07-06T07:20:05.265Z,74.38
2018-07-06T07:20:30.762Z,74.48
2018-07-06T07:20:56.210Z,74.57
2018-07-06T07:21:21.702Z,74.76
2018-07-06T07:21:47.297Z,74.96
2018-07-06T07:22:12.732Z,74.76
2018-07-06T07:22:38.278Z,74.38
2018-07-06T07:23:03.747Z,74.67
2018-07-06T07:23:29.218Z,74.86
2018-07-06T07:23:54.676Z,74.67
2018-07-06T07:24:20.184Z,74.96
2018-07-06T07:24:45.683Z,75.05
2018-07-06T07:25:11.155Z,75.15
2018-07-06T07:25:36.641Z,75.15
2018-07-06T07:26:02.191Z,75.15
2018-07-06T07:26:27.676Z,75.05
2018-07-06T07:26:53.134Z,75.05
2018-07-06T07:27:18.596Z,75.05
2018-07-06T07:27:44.100Z,75.34
2018-07-06T07:28:09.544Z,75.15
2018-07-06T07:28:35.006Z,75.24
2018-07-06T07:29:00.515Z,75.44
2018-07-06T07:29:25.970Z,75.44
2018-07-06T07:29:51.429Z,75.34
2018-07-06T07:30:17.117Z,75.63
2018-07-06T07:30:42.579Z,75.44
2018-07-06T07:31:08.054Z,75.34
2018-07-06T07:31:33.538Z,75.15
2018-07-06T07:31:59.036Z,75.34
2018-07-06T07:32:24.555Z,75.34
2018-07-06T07:32:50.165Z,75.44
2018-07-06T07:33:15.683Z,75.73
2018-07-06T07:33:41.131Z,75.63
2018-07-06T07:34:06.732Z,74.67
2018-07-06T07:34:32.230Z,74.48
2018-07-06T07:34:57.758Z,74.38
2018-07-06T07:35:23.276Z,74.57
2018-07-06T07:35:48.784Z,74.48
2018-07-06T07:36:14.318Z,74.86
2018-07-06T07:36:39.818Z,74.76
2018-07-06T07:37:05.303Z,74.76
2018-07-06T07:37:30.816Z,74.96
2018-07-06T07:37:56.343Z,74.9
2018-07-06T07:38:21.849Z,74.96
2018-07-06T07:38:47.389Z,74.96
2018-07-06T07:39:12.964Z,75.34
2018-07-06T07:39:38.624Z,75.15
2018-07-06T07:40:04.079Z,74.8
2018-07-06T07:40:29.554Z,75.09
2018-07-06T07:40:55.053Z,74.96
2018-07-06T07:41:20.502Z,74.67
2018-07-06T07:41:46.184Z,74.76
2018-07-06T07:42:11.549Z,74.9
2018-07-06T07:42:37.025Z,74.51
2018-07-06T07:43:02.517Z,74.41
2018-07-06T07:43:28.011Z,74.71
2018-07-06T07:43:53.473Z,74.19
2018-07-06T07:44:18.937Z,74.61
2018-07-06T07:44:44.400Z,74.61
2018-07-06T07:45:09.934Z,73.74
2018-07-06T07:45:35.420Z,74.03
2018-07-06T07:46:00.890Z,74.03
2018-07-06T07:46:26.430Z,74.13
2018-07-06T07:46:51.878Z,74.13
2018-07-06T07:47:17.381Z,74.13
2018-07-06T07:47:42.995Z,74.22
2018-07-06T07:48:08.548Z,73.74
2018-07-06T07:48:34.020Z,73.74
2018-07-06T07:48:59.549Z,73.88
2018-07-06T07:49:25.025Z,73.65
2018-07-06T07:49:50.475Z,73.3
2018-07-06T07:50:16.075Z,73.46
2018-07-06T07:50:41.536Z,73.07
2018-07-06T07:51:07.011Z,72.81
2018-07-06T07:51:32.518Z,72.68
2018-07-06T07:51:57.969Z,72.81
2018-07-06T07:52:23.437Z,72.59
2018-07-06T07:52:48.887Z,73.07
2018-07-06T07:53:14.339Z,72.68
2018-07-06T07:53:39.822Z,72.81
2018-07-06T07:54:05.480Z,72.88
2018-07-06T07:54:30.982Z,72.88
2018-07-06T07:54:56.477Z,72.78
2018-07-06T07:55:21.906Z,73.07
2018-07-06T07:55:47.417Z,72.68
2018-07-06T07:56:12.850Z,72.59
2018-07-06T07:56:38.322Z,72.72
2018-07-06T07:57:03.812Z,72.68
2018-07-06T07:57:29.301Z,72.78
2018-07-06T07:57:54.760Z,72.68
2018-07-06T07:58:20.212Z,72.68
2018-07-06T07:58:45.669Z,72.63
2018-07-06T07:59:11.191Z,72.39
2018-07-06T07:59:36.609Z,72.49
2018-07-06T08:00:02.068Z,72.63
2018-07-06T08:00:27.582Z,72.53
2018-07-06T08:00:53.071Z,72.63
2018-07-06T08:01:18.646Z,72.63
2018-07-06T08:01:43.950Z,72.63
2018-07-06T08:02:09.448Z,72.63
2018-07-06T08:02:34.881Z,72.33
2018-07-06T08:03:00.374Z,72.53
2018-07-06T08:03:25.841Z,72.63
2018-07-06T08:03:51.487Z,72.05
2018-07-06T08:04:16.856Z,71.56
2018-07-06T08:04:42.303Z,71.76
2018-07-06T08:05:07.765Z,71.47
2018-07-06T08:05:33.235Z,71.56
2018-07-06T08:05:58.702Z,71.47
2018-07-06T08:06:24.157Z,71.79
2018-07-06T08:06:49.661Z,71.6
2018-07-06T08:07:15.116Z,71.7
2018-07-06T08:07:40.604Z,71.79
2018-07-06T08:08:06.163Z,71.37
2018-07-06T08:08:31.618Z,71.41
2018-07-06T08:08:57.104Z,71.7
2018-07-06T08:09:22.602Z,71.31
2018-07-06T08:09:48.056Z,71.31
2018-07-06T08:10:41.505Z,71.5
2018-07-06T08:11:06.998Z,70.92
2018-07-06T08:11:35.446Z,71.12
2018-07-06T08:11:57.955Z,71.6
2018-07-06T08:12:23.432Z,71.7
2018-07-06T08:12:48.898Z,71.41
2018-07-06T08:13:14.378Z,71.5
2018-07-06T08:13:39.882Z,70.83
2018-07-06T08:14:05.444Z,70.83
2018-07-06T08:14:31.027Z,70.92
2018-07-06T08:14:56.426Z,71.31
2018-07-06T08:15:21.934Z,71.12
2018-07-06T08:15:47.465Z,71.22
2018-07-06T08:16:12.931Z,70.92
2018-07-06T08:16:38.429Z,71.7
2018-07-06T08:17:03.918Z,71.44
2018-07-06T08:17:29.416Z,71.5
2018-07-06T08:17:54.935Z,71.15
2018-07-06T08:18:20.416Z,70.86
2018-07-06T08:18:45.920Z,71.28
2018-07-06T08:19:11.458Z,70.51
2018-07-06T08:19:36.988Z,70.03
2018-07-06T08:20:45.695Z,68.91
2018-07-06T08:21:11.206Z,68.13
2018-07-06T08:21:36.669Z,68.04
2018-07-06T08:22:02.178Z,67.75
2018-07-06T08:22:27.679Z,67.65
2018-07-06T08:22:53.422Z,67.75
2018-07-06T08:23:19.527Z,67.55
2018-07-06T08:23:45.026Z,66.91
2018-07-06T08:24:10.513Z,66.91
2018-07-06T08:24:35.978Z,66.14
2018-07-06T08:25:01.511Z,65.85
2018-07-06T08:25:27.056Z,65.27
2018-07-06T08:25:52.473Z,65.37
2018-07-06T08:26:17.967Z,65.27
2018-07-06T08:26:43.477Z,64.69
2018-07-06T08:27:08.952Z,64.11
2018-07-06T08:27:34.459Z,64.79
2018-07-06T08:27:59.970Z,64.72
2018-07-06T08:28:25.445Z,64.63
2018-07-06T08:28:50.937Z,64.82
2018-07-06T08:29:16.399Z,64.14
2018-07-06T08:29:41.901Z,64.05
2018-07-06T08:30:07.364Z,64.05
2018-07-06T08:30:32.851Z,64.05
2018-07-06T08:30:58.353Z,63.56
2018-07-06T08:31:23.848Z,63.28
2018-07-06T08:31:49.342Z,62.7
2018-07-06T08:32:14.828Z,62.5
2018-07-06T08:32:40.378Z,61.92
2018-07-06T08:33:05.894Z,61.6
2018-07-06T08:33:31.391Z,62.21
2018-07-06T08:33:56.936Z,62.57
2018-07-06T08:34:22.390Z,63.05
2018-07-06T08:34:47.867Z,62.76
2018-07-06T08:35:13.364Z,63.05
2018-07-06T08:35:38.868Z,63.15
2018-07-06T08:36:04.380Z,63.24
2018-07-06T08:36:29.910Z,62.66
2018-07-06T08:36:55.377Z,62.57
2018-07-06T08:37:20.843Z,62.57
2018-07-06T08:37:46.368Z,62.57
2018-07-06T08:38:11.879Z,62.95
2018-07-06T08:38:37.361Z,62.08
2018-07-06T08:39:02.843Z,61.89
2018-07-06T08:39:28.418Z,62.28
2018-07-06T08:39:53.963Z,63.15
2018-07-06T08:40:19.406Z,63.05
2018-07-06T08:40:44.862Z,62.66
2018-07-06T08:41:10.358Z,63.05
2018-07-06T08:41:35.850Z,62.89
2018-07-06T08:42:01.371Z,62.89
2018-07-06T08:42:26.886Z,63.18
2018-07-06T08:42:52.371Z,62.98
2018-07-06T08:43:17.938Z,62.79
2018-07-06T08:43:43.394Z,62.79
2018-07-06T08:44:08.885Z,62.79
2018-07-06T08:44:34.411Z,62.82
2018-07-06T08:45:00.100Z,63.21
2018-07-06T08:45:25.383Z,62.24
2018-07-06T08:45:50.895Z,61.66
2018-07-06T08:46:16.531Z,61.47
2018-07-06T08:46:42.025Z,61.5
2018-07-06T08:47:07.505Z,61.11
2018-07-06T08:47:32.944Z,60.72
2018-07-06T08:47:58.394Z,60.53
2018-07-06T08:48:23.903Z,60.92
2018-07-06T08:48:49.329Z,59.56
2018-07-06T08:49:14.823Z,59.56
2018-07-06T08:49:40.313Z,59.38
2018-07-06T08:50:05.807Z,58.44
2018-07-06T08:50:31.264Z,58.82
2018-07-06T08:50:56.852Z,58.04
2018-07-06T08:51:22.289Z,58.14
2018-07-06T08:51:47.748Z,57.86
2018-07-06T08:52:13.233Z,57.66
2018-07-06T08:52:38.714Z,56.7
2018-07-06T08:53:04.181Z,56.88
2018-07-06T08:53:29.933Z,56.88
2018-07-06T08:53:55.266Z,57.08
2018-07-06T08:54:21.067Z,57.56
2018-07-06T08:54:46.553Z,57.46
2018-07-06T08:55:12.095Z,56.4
2018-07-06T08:55:37.623Z,55.92
2018-07-06T08:56:03.101Z,55.73
2018-07-06T08:56:28.584Z,56.02
2018-07-06T08:56:54.078Z,56.79
2018-07-06T08:57:19.558Z,56.79
2018-07-06T08:57:45.052Z,57.08
2018-07-06T08:58:10.544Z,56.95
2018-07-06T08:58:36.155Z,56.88
2018-07-06T08:59:01.683Z,57.24
2018-07-06T08:59:27.178Z,57.15
2018-07-06T08:59:52.677Z,57.44
2018-07-06T09:00:18.158Z,57.73
2018-07-06T09:00:43.656Z,58.12
2018-07-06T09:01:09.155Z,58.02
2018-07-06T09:01:34.662Z,58.4
2018-07-06T09:02:00.148Z,59.08
2018-07-06T09:02:25.652Z,58.4
2018-07-06T09:02:51.151Z,58.12
2018-07-06T09:03:16.659Z,58.31
2018-07-06T09:03:42.161Z,57.92
2018-07-06T09:04:07.745Z,57.92
2018-07-06T09:04:33.311Z,57.92
2018-07-06T09:04:58.655Z,58.7
2018-07-06T09:05:24.150Z,58.53
2018-07-06T09:05:49.633Z,58.34
2018-07-06T09:06:15.170Z,58.53
2018-07-06T09:06:40.658Z,58.82
2018-07-06T09:07:06.158Z,58.44
2018-07-06T09:07:31.688Z,58.53
2018-07-06T09:07:57.126Z,58.44
2018-07-06T09:08:22.641Z,57.88
2018-07-06T09:08:48.158Z,57.79
2018-07-06T09:09:13.649Z,56.92
2018-07-06T09:09:39.119Z,57.3
2018-07-06T09:10:04.630Z,57.3
2018-07-06T09:10:30.210Z,57.01
2018-07-06T09:10:55.746Z,57.11
2018-07-06T09:11:21.225Z,57.2
2018-07-06T09:11:46.751Z,57.4
2018-07-06T09:12:12.210Z,56.92
2018-07-06T09:12:37.686Z,57.4
2018-07-06T09:13:03.226Z,57.4
2018-07-06T09:13:28.673Z,57.2
2018-07-06T09:13:54.303Z,56.72
2018-07-06T09:14:19.780Z,56.52
2018-07-06T09:14:45.270Z,56.82
2018-07-06T09:15:10.781Z,57.3
2018-07-06T09:15:36.224Z,57.28
2018-07-06T09:16:01.691Z,57.01
2018-07-06T09:16:27.136Z,56.72
2018-07-06T09:16:52.624Z,57.4
2018-07-06T09:17:18.083Z,56.82
2018-07-06T09:17:43.572Z,57.3
2018-07-06T09:18:09.091Z,57.01
2018-07-06T09:18:34.522Z,56.92
2018-07-06T09:18:59.978Z,57.2
2018-07-06T09:19:25.495Z,57.01
2018-07-06T09:19:51.197Z,56.62
2018-07-06T09:20:16.568Z,57.01
2018-07-06T09:20:41.874Z,56.85
2018-07-06T09:21:07.298Z,56.85
2018-07-06T09:21:32.771Z,57.23
2018-07-06T09:22:30.852Z,56.36
2018-07-06T09:22:56.361Z,56.07
2018-07-06T09:23:21.849Z,55.98
2018-07-06T09:23:47.356Z,56.2
2018-07-06T09:24:12.843Z,55.52
2018-07-06T09:24:38.287Z,55.32
2018-07-06T09:25:03.761Z,55.71
2018-07-06T09:25:29.364Z,55.22
2018-07-06T09:25:54.901Z,55.32
2018-07-06T09:26:20.165Z,55.13
2018-07-06T09:26:45.684Z,55.32
2018-07-06T09:27:11.137Z,55.44
2018-07-06T09:27:36.642Z,54.96
2018-07-06T09:28:02.138Z,54.67
2018-07-06T09:28:27.623Z,54.77
2018-07-06T09:28:53.082Z,54.38
2018-07-06T09:29:18.534Z,54.38
2018-07-06T09:29:44.049Z,54.86
2018-07-06T09:30:09.530Z,54.86
2018-07-06T09:30:34.971Z,54.38
2018-07-06T09:31:00.430Z,54.58
2018-07-06T09:31:25.897Z,54.48
2018-07-06T09:31:51.401Z,53.99
2018-07-06T09:32:16.886Z,53.51
2018-07-06T09:32:42.304Z,54.19
2018-07-06T09:33:07.805Z,53.15
2018-07-06T09:33:33.494Z,53.34
2018-07-06T09:33:58.715Z,53.15
2018-07-06T09:34:24.201Z,53.15
2018-07-06T09:34:49.659Z,53.05
2018-07-06T09:35:15.145Z,53.05
2018-07-06T09:35:40.588Z,52.66
2018-07-06T09:36:06.066Z,52.66
2018-07-06T09:36:31.546Z,52.76
2018-07-06T09:36:57.012Z,52.76
2018-07-06T09:37:22.470Z,52.37
2018-07-06T09:37:47.940Z,52.28
2018-07-06T09:38:13.506Z,51.98
2018-07-06T09:38:38.878Z,52.25
2018-07-06T09:39:04.376Z,52.44
2018-07-06T09:39:29.940Z,52.54
2018-07-06T09:39:55.366Z,53.22
2018-07-06T09:40:20.877Z,53.31
2018-07-06T09:40:46.358Z,53.12
2018-07-06T09:41:11.874Z,53.31
2018-07-06T09:41:37.359Z,53.09
2018-07-06T09:42:02.872Z,53.09
2018-07-06T09:42:28.379Z,53.09
2018-07-06T09:42:53.857Z,53.19
2018-07-06T09:43:19.451Z,52.9
2018-07-06T09:43:44.872Z,53.19
2018-07-06T09:44:10.377Z,54.16
2018-07-06T09:44:35.873Z,53.87
2018-07-06T09:45:01.339Z,53.58
2018-07-06T09:45:26.850Z,53.39
2018-07-06T09:45:52.390Z,54.16